sensor_id;sensor_type;location;lat;lon;timestamp;pressure;altitude;pressure_sealevel;temperature
24586;BMP280;12743;52.262;6.172;2022-08-03T00:01:18;101183.72;;;21.51
24586;BMP280;12743;52.262;6.172;2022-08-03T00:03:43;101188.81;;;21.25
24586;BMP280;12743;52.262;6.172;2022-08-03T00:06:09;101211.25;;;21.41
24586;BMP280;12743;52.262;6.172;2022-08-03T00:08:34;101188.78;;;21.35
24586;BMP280;12743;52.262;6.172;2022-08-03T00:11:00;101191.06;;;21.30
24586;BMP280;12743;52.262;6.172;2022-08-03T00:13:26;101183.06;;;21.26
24586;BMP280;12743;52.262;6.172;2022-08-03T00:15:52;101207.78;;;21.44
24586;BMP280;12743;52.262;6.172;2022-08-03T00:18:17;101197.94;;;21.34
24586;BMP280;12743;52.262;6.172;2022-08-03T00:20:43;101199.47;;;21.35
24586;BMP280;12743;52.262;6.172;2022-08-03T00:23:08;101190.34;;;21.22
24586;BMP280;12743;52.262;6.172;2022-08-03T00:25:34;101182.06;;;20.99
24586;BMP280;12743;52.262;6.172;2022-08-03T00:28:01;101154.22;;;20.86
24586;BMP280;12743;52.262;6.172;2022-08-03T00:30:26;101159.94;;;20.99
24586;BMP280;12743;52.262;6.172;2022-08-03T00:32:52;101167.66;;;20.65
24586;BMP280;12743;52.262;6.172;2022-08-03T00:35:17;101151.63;;;20.65
24586;BMP280;12743;52.262;6.172;2022-08-03T00:37:43;101127.97;;;20.67
24586;BMP280;12743;52.262;6.172;2022-08-03T00:40:12;101154.28;;;20.83
24586;BMP280;12743;52.262;6.172;2022-08-03T00:45:16;101203.44;;;20.85
24586;BMP280;12743;52.262;6.172;2022-08-03T00:47:42;101195.47;;;20.64
24586;BMP280;12743;52.262;6.172;2022-08-03T00:50:08;101157.75;;;20.27
24586;BMP280;12743;52.262;6.172;2022-08-03T00:52:34;101153.22;;;20.13
24586;BMP280;12743;52.262;6.172;2022-08-03T00:54:59;101169.63;;;20.33
24586;BMP280;12743;52.262;6.172;2022-08-03T00:57:26;101161.59;;;20.22
24586;BMP280;12743;52.262;6.172;2022-08-03T00:59:53;101165.81;;;20.20
24586;BMP280;12743;52.262;6.172;2022-08-03T01:02:18;101161.63;;;20.29
24586;BMP280;12743;52.262;6.172;2022-08-03T01:04:44;101132.66;;;20.07
24586;BMP280;12743;52.262;6.172;2022-08-03T01:15:19;101152.41;;;20.30
24586;BMP280;12743;52.262;6.172;2022-08-03T01:18:02;101181.44;;;20.42
24586;BMP280;12743;52.262;6.172;2022-08-03T01:20:33;101159.31;;;20.21
24586;BMP280;12743;52.262;6.172;2022-08-03T01:23:28;101135.69;;;20.23
24586;BMP280;12743;52.262;6.172;2022-08-03T01:26:07;101127.69;;;19.98
24586;BMP280;12743;52.262;6.172;2022-08-03T01:28:57;101176.84;;;20.39
24586;BMP280;12743;52.262;6.172;2022-08-03T01:31:43;101146.38;;;20.16
24586;BMP280;12743;52.262;6.172;2022-08-03T01:34:13;101146.38;;;20.19
24586;BMP280;12743;52.262;6.172;2022-08-03T01:36:43;101115.88;;;19.85
24586;BMP280;12743;52.262;6.172;2022-08-03T01:39:12;101154.38;;;20.12
24586;BMP280;12743;52.262;6.172;2022-08-03T01:41:43;101109.03;;;19.73
24586;BMP280;12743;52.262;6.172;2022-08-03T01:44:11;101149.78;;;20.09
24586;BMP280;12743;52.262;6.172;2022-08-03T01:46:38;101152.81;;;20.15
24586;BMP280;12743;52.262;6.172;2022-08-03T01:49:06;101107.50;;;19.72
24586;BMP280;12743;52.262;6.172;2022-08-03T01:51:35;101136.44;;;19.77
24586;BMP280;12743;52.262;6.172;2022-08-03T01:54:01;101092.28;;;19.73
24586;BMP280;12743;52.262;6.172;2022-08-03T01:56:28;101142.19;;;19.94
24586;BMP280;12743;52.262;6.172;2022-08-03T01:58:57;101155.50;;;20.04
24586;BMP280;12743;52.262;6.172;2022-08-03T02:01:26;101131.88;;;20.06
24586;BMP280;12743;52.262;6.172;2022-08-03T02:03:51;101120.44;;;19.77
24586;BMP280;12743;52.262;6.172;2022-08-03T02:06:19;101129.63;;;19.87
24586;BMP280;12743;52.262;6.172;2022-08-03T02:08:47;101120.81;;;19.97
24586;BMP280;12743;52.262;6.172;2022-08-03T02:11:17;101159.31;;;20.07
24586;BMP280;12743;52.262;6.172;2022-08-03T02:13:44;101113.59;;;19.73
24586;BMP280;12743;52.262;6.172;2022-08-03T02:16:12;101133.78;;;20.02
24586;BMP280;12743;52.262;6.172;2022-08-03T02:18:39;101092.28;;;19.69
24586;BMP280;12743;52.262;6.172;2022-08-03T02:21:06;101153.56;;;20.05
24586;BMP280;12743;52.262;6.172;2022-08-03T02:23:35;101144.44;;;20.02
24586;BMP280;12743;52.262;6.172;2022-08-03T02:26:02;101163.50;;;20.04
24586;BMP280;12743;52.262;6.172;2022-08-03T02:28:33;101125.78;;;19.99
24586;BMP280;12743;52.262;6.172;2022-08-03T02:31:02;101154.38;;;20.12
24586;BMP280;12743;52.262;6.172;2022-08-03T02:33:41;101141.41;;;19.90
24586;BMP280;12743;52.262;6.172;2022-08-03T02:36:07;101102.16;;;19.72
24586;BMP280;12743;52.262;6.172;2022-08-03T02:38:38;101125.03;;;19.70
24586;BMP280;12743;52.262;6.172;2022-08-03T02:41:06;101115.88;;;19.78
24586;BMP280;12743;52.262;6.172;2022-08-03T02:43:34;101125.38;;;19.68
24586;BMP280;12743;52.262;6.172;2022-08-03T02:46:00;101144.06;;;19.90
24586;BMP280;12743;52.262;6.172;2022-08-03T02:48:31;101104.41;;;19.49
24586;BMP280;12743;52.262;6.172;2022-08-03T02:50:58;101126.47;;;19.46
24586;BMP280;12743;52.262;6.172;2022-08-03T02:53:25;101140.97;;;19.59
24586;BMP280;12743;52.262;6.172;2022-08-03T02:55:51;101131.44;;;19.55
24586;BMP280;12743;52.262;6.172;2022-08-03T02:58:18;101105.88;;;19.33
24586;BMP280;12743;52.262;6.172;2022-08-03T03:00:47;101121.94;;;19.57
24586;BMP280;12743;52.262;6.172;2022-08-03T03:03:13;101126.16;;;19.65
24586;BMP280;12743;52.262;6.172;2022-08-03T03:05:39;101111.59;;;19.31
24586;BMP280;12743;52.262;6.172;2022-08-03T03:08:07;101100.50;;;19.15
24586;BMP280;12743;52.262;6.172;2022-08-03T03:10:32;101121.53;;;19.34
24586;BMP280;12743;52.262;6.172;2022-08-03T03:12:59;101123.78;;;19.32
24586;BMP280;12743;52.262;6.172;2022-08-03T03:15:28;101102.41;;;19.08
24586;BMP280;12743;52.262;6.172;2022-08-03T03:17:56;101126.78;;;19.24
24586;BMP280;12743;52.262;6.172;2022-08-03T03:20:23;101099.38;;;19.23
24586;BMP280;12743;52.262;6.172;2022-08-03T03:22:49;101109.69;;;19.18
24586;BMP280;12743;52.262;6.172;2022-08-03T03:25:15;101113.47;;;19.24
24586;BMP280;12743;52.262;6.172;2022-08-03T03:27:41;101106.97;;;19.11
24586;BMP280;12743;52.262;6.172;2022-08-03T03:30:07;101126.72;;;19.10
24586;BMP280;12743;52.262;6.172;2022-08-03T03:32:33;101129.78;;;19.15
24586;BMP280;12743;52.262;6.172;2022-08-03T03:35:01;101052.78;;;18.75
24586;BMP280;12743;52.262;6.172;2022-08-03T03:37:26;101094.75;;;19.06
24586;BMP280;12743;52.262;6.172;2022-08-03T03:39:53;101095.88;;;18.98
24586;BMP280;12743;52.262;6.172;2022-08-03T03:42:19;101087.47;;;18.89
24586;BMP280;12743;52.262;6.172;2022-08-03T03:44:44;101077.50;;;18.72
24586;BMP280;12743;52.262;6.172;2022-08-03T03:47:10;101104.28;;;19.00
24586;BMP280;12743;52.262;6.172;2022-08-03T03:49:35;101116.34;;;18.83
24586;BMP280;12743;52.262;6.172;2022-08-03T03:52:01;101122.78;;;18.82
24586;BMP280;12743;52.262;6.172;2022-08-03T03:54:38;101110.25;;;18.79
24586;BMP280;12743;52.262;6.172;2022-08-03T03:57:03;101122.06;;;18.86
24586;BMP280;12743;52.262;6.172;2022-08-03T03:59:29;101091.94;;;18.64
24586;BMP280;12743;52.262;6.172;2022-08-03T04:01:54;101071.34;;;18.54
24586;BMP280;12743;52.262;6.172;2022-08-03T04:04:19;101084.69;;;18.61
24586;BMP280;12743;52.262;6.172;2022-08-03T04:07:03;101069.00;;;18.45
24586;BMP280;12743;52.262;6.172;2022-08-03T04:09:48;101121.28;;;18.85
24586;BMP280;12743;52.262;6.172;2022-08-03T04:12:32;101111.72;;;18.70
24586;BMP280;12743;52.262;6.172;2022-08-03T04:14:59;101114.38;;;18.73
24586;BMP280;12743;52.262;6.172;2022-08-03T04:17:27;101101.03;;;18.63
24586;BMP280;12743;52.262;6.172;2022-08-03T04:19:55;101086.56;;;18.57
24586;BMP280;12743;52.262;6.172;2022-08-03T04:22:25;101106.41;;;18.73
24586;BMP280;12743;52.262;6.172;2022-08-03T04:24:59;101113.59;;;18.66
24586;BMP280;12743;52.262;6.172;2022-08-03T04:27:28;101124.66;;;18.68
24586;BMP280;12743;52.262;6.172;2022-08-03T04:29:56;101109.41;;;18.61
24586;BMP280;12743;52.262;6.172;2022-08-03T04:32:22;101129.59;;;18.73
24586;BMP280;12743;52.262;6.172;2022-08-03T04:34:51;101127.72;;;18.77
24586;BMP280;12743;52.262;6.172;2022-08-03T04:37:34;101137.63;;;18.76
24586;BMP280;12743;52.262;6.172;2022-08-03T04:40:05;101103.00;;;18.73
24586;BMP280;12743;52.262;6.172;2022-08-03T04:42:32;101140.00;;;18.99
24586;BMP280;12743;52.262;6.172;2022-08-03T04:44:58;101096.09;;;18.61
24586;BMP280;12743;52.262;6.172;2022-08-03T04:47:23;101127.31;;;18.75
24586;BMP280;12743;52.262;6.172;2022-08-03T04:49:49;101063.69;;;18.49
24586;BMP280;12743;52.262;6.172;2022-08-03T04:52:15;101116.31;;;18.76
24586;BMP280;12743;52.262;6.172;2022-08-03T04:54:42;101119.34;;;18.71
24586;BMP280;12743;52.262;6.172;2022-08-03T04:57:09;101122.41;;;18.77
24586;BMP280;12743;52.262;6.172;2022-08-03T04:59:35;101100.63;;;18.61
24586;BMP280;12743;52.262;6.172;2022-08-03T05:02:00;101126.59;;;18.81
24586;BMP280;12743;52.262;6.172;2022-08-03T05:04:26;101118.63;;;18.81
24586;BMP280;12743;52.262;6.172;2022-08-03T05:06:51;101154.53;;;19.12
24586;BMP280;12743;52.262;6.172;2022-08-03T05:09:16;101122.06;;;18.89
24586;BMP280;12743;52.262;6.172;2022-08-03T05:11:42;101152.25;;;19.14
24586;BMP280;12743;52.262;6.172;2022-08-03T05:14:09;101138.47;;;19.02
24586;BMP280;12743;52.262;6.172;2022-08-03T05:16:35;101137.72;;;19.05
24586;BMP280;12743;52.262;6.172;2022-08-03T05:19:00;101131.69;;;19.15
24586;BMP280;12743;52.262;6.172;2022-08-03T05:21:26;101140.44;;;19.19
24586;BMP280;12743;52.262;6.172;2022-08-03T05:23:51;101146.53;;;19.12
24586;BMP280;12743;52.262;6.172;2022-08-03T05:26:16;101134.69;;;18.99
24586;BMP280;12743;52.262;6.172;2022-08-03T05:28:42;101164.47;;;19.29
24586;BMP280;12743;52.262;6.172;2022-08-03T05:31:07;101137.47;;;19.27
24586;BMP280;12743;52.262;6.172;2022-08-03T05:33:33;101102.34;;;19.01
24586;BMP280;12743;52.262;6.172;2022-08-03T05:35:58;101132.50;;;19.22
24586;BMP280;12743;52.262;6.172;2022-08-03T05:38:24;101167.50;;;19.28
24586;BMP280;12743;52.262;6.172;2022-08-03T05:40:50;101144.38;;;19.46
24586;BMP280;12743;52.262;6.172;2022-08-03T05:43:15;101134.88;;;19.55
24586;BMP280;12743;52.262;6.172;2022-08-03T05:45:41;101136.81;;;19.72
24586;BMP280;12743;52.262;6.172;2022-08-03T05:48:06;101163.09;;;19.88
24586;BMP280;12743;52.262;6.172;2022-08-03T05:50:31;101126.16;;;19.72
24586;BMP280;12743;52.262;6.172;2022-08-03T05:52:57;101100.22;;;19.55
24586;BMP280;12743;52.262;6.172;2022-08-03T05:55:22;101149.75;;;19.81
24586;BMP280;12743;52.262;6.172;2022-08-03T05:57:48;101134.56;;;19.96
24586;BMP280;12743;52.262;6.172;2022-08-03T06:00:14;101152.47;;;20.20
24586;BMP280;12743;52.262;6.172;2022-08-03T06:02:40;101156.66;;;20.21
24586;BMP280;12743;52.262;6.172;2022-08-03T06:05:06;101152.06;;;20.28
24586;BMP280;12743;52.262;6.172;2022-08-03T06:07:32;101174.56;;;20.38
24586;BMP280;12743;52.262;6.172;2022-08-03T06:09:58;101163.50;;;20.46
24586;BMP280;12743;52.262;6.172;2022-08-03T06:12:26;101148.22;;;20.47
24586;BMP280;12743;52.262;6.172;2022-08-03T06:14:51;101157.31;;;20.63
24586;BMP280;12743;52.262;6.172;2022-08-03T06:17:17;101111.66;;;20.30
24586;BMP280;12743;52.262;6.172;2022-08-03T06:19:42;101167.63;;;20.83
24586;BMP280;12743;52.262;6.172;2022-08-03T06:22:08;101145.91;;;20.59
24586;BMP280;12743;52.262;6.172;2022-08-03T06:24:33;101141.72;;;20.62
24586;BMP280;12743;52.262;6.172;2022-08-03T06:26:59;101168.41;;;20.72
24586;BMP280;12743;52.262;6.172;2022-08-03T06:29:24;101165.34;;;20.70
24586;BMP280;12743;52.262;6.172;2022-08-03T06:31:49;101172.56;;;20.77
24586;BMP280;12743;52.262;6.172;2022-08-03T06:34:15;101157.69;;;20.83
24586;BMP280;12743;52.262;6.172;2022-08-03T06:36:41;101174.41;;;21.01
24586;BMP280;12743;52.262;6.172;2022-08-03T06:39:06;101146.94;;;20.97
24586;BMP280;12743;52.262;6.172;2022-08-03T06:41:32;101153.47;;;20.89
24586;BMP280;12743;52.262;6.172;2022-08-03T06:43:57;101148.38;;;21.19
24586;BMP280;12743;52.262;6.172;2022-08-03T06:46:23;101158.91;;;21.51
24586;BMP280;12743;52.262;6.172;2022-08-03T06:48:48;101151.91;;;21.64
24586;BMP280;12743;52.262;6.172;2022-08-03T06:51:14;101145.78;;;21.70
24586;BMP280;12743;52.262;6.172;2022-08-03T06:53:39;101144.28;;;21.62
24586;BMP280;12743;52.262;6.172;2022-08-03T06:56:06;101146.72;;;21.43
24586;BMP280;12743;52.262;6.172;2022-08-03T06:58:31;101171.81;;;21.56
24586;BMP280;12743;52.262;6.172;2022-08-03T07:00:57;101165.59;;;21.73
24586;BMP280;12743;52.262;6.172;2022-08-03T07:03:22;101152.63;;;21.71
24586;BMP280;12743;52.262;6.172;2022-08-03T07:05:48;101149.63;;;21.62
24586;BMP280;12743;52.262;6.172;2022-08-03T07:08:14;101178.06;;;21.94
24586;BMP280;12743;52.262;6.172;2022-08-03T07:10:49;101151.84;;;21.78
24586;BMP280;12743;52.262;6.172;2022-08-03T07:13:14;101165.81;;;21.96
24586;BMP280;12743;52.262;6.172;2022-08-03T07:15:39;101140.47;;;21.63
24586;BMP280;12743;52.262;6.172;2022-08-03T07:18:05;101177.72;;;21.88
24586;BMP280;12743;52.262;6.172;2022-08-03T07:20:31;101170.31;;;22.03
24586;BMP280;12743;52.262;6.172;2022-08-03T07:22:56;101134.84;;;21.95
24586;BMP280;12743;52.262;6.172;2022-08-03T07:25:21;101166.47;;;22.11
24586;BMP280;12743;52.262;6.172;2022-08-03T07:27:48;101160.41;;;22.03
24586;BMP280;12743;52.262;6.172;2022-08-03T07:30:14;101183.72;;;22.47
24586;BMP280;12743;52.262;6.172;2022-08-03T07:32:40;101182.53;;;22.48
24586;BMP280;12743;52.262;6.172;2022-08-03T07:35:06;101156.31;;;22.32
24586;BMP280;12743;52.262;6.172;2022-08-03T07:37:32;101171.47;;;22.46
24586;BMP280;12743;52.262;6.172;2022-08-03T07:39:59;101189.72;;;22.54
24586;BMP280;12743;52.262;6.172;2022-08-03T07:42:25;101187.66;;;22.69
24586;BMP280;12743;52.262;6.172;2022-08-03T07:44:51;101160.44;;;22.44
24586;BMP280;12743;52.262;6.172;2022-08-03T07:47:18;101179.56;;;22.76
24586;BMP280;12743;52.262;6.172;2022-08-03T07:49:44;101185.28;;;22.78
24586;BMP280;12743;52.262;6.172;2022-08-03T07:52:09;101176.91;;;22.72
24586;BMP280;12743;52.262;6.172;2022-08-03T07:54:53;101182.59;;;22.78
24586;BMP280;12743;52.262;6.172;2022-08-03T07:57:18;101188.59;;;22.89
24586;BMP280;12743;52.262;6.172;2022-08-03T07:59:45;101144.75;;;22.76
24586;BMP280;12743;52.262;6.172;2022-08-03T08:02:11;101188.03;;;23.01
24586;BMP280;12743;52.262;6.172;2022-08-03T08:04:36;101150.09;;;22.76
24586;BMP280;12743;52.262;6.172;2022-08-03T08:07:01;101201.09;;;23.29
24586;BMP280;12743;52.262;6.172;2022-08-03T08:09:27;101189.25;;;23.53
24586;BMP280;12743;52.262;6.172;2022-08-03T08:11:52;101168.91;;;23.56
24586;BMP280;12743;52.262;6.172;2022-08-03T08:14:18;101190.41;;;23.79
24586;BMP280;12743;52.262;6.172;2022-08-03T08:16:43;101176.09;;;23.85
24586;BMP280;12743;52.262;6.172;2022-08-03T08:19:08;101176.78;;;23.89
24586;BMP280;12743;52.262;6.172;2022-08-03T08:21:34;101189.28;;;23.76
24586;BMP280;12743;52.262;6.172;2022-08-03T08:23:59;101183.13;;;23.79
24586;BMP280;12743;52.262;6.172;2022-08-03T08:26:25;101100.78;;;23.27
24586;BMP280;12743;52.262;6.172;2022-08-03T08:28:50;101194.34;;;23.94
24586;BMP280;12743;52.262;6.172;2022-08-03T08:31:16;101175.28;;;23.88
24586;BMP280;12743;52.262;6.172;2022-08-03T08:33:42;101142.06;;;23.82
24586;BMP280;12743;52.262;6.172;2022-08-03T08:36:07;101138.19;;;23.83
24586;BMP280;12743;52.262;6.172;2022-08-03T08:38:34;101170.16;;;24.17
24586;BMP280;12743;52.262;6.172;2022-08-03T08:40:59;101156.00;;;24.36
24586;BMP280;12743;52.262;6.172;2022-08-03T08:43:25;101190.97;;;24.72
24586;BMP280;12743;52.262;6.172;2022-08-03T08:45:53;101184.13;;;24.71
24586;BMP280;12743;52.262;6.172;2022-08-03T08:48:21;101202.13;;;24.90
24586;BMP280;12743;52.262;6.172;2022-08-03T08:50:51;101201.16;;;25.00
24586;BMP280;12743;52.262;6.172;2022-08-03T08:53:17;101205.25;;;25.24
24586;BMP280;12743;52.262;6.172;2022-08-03T08:55:45;101190.41;;;25.16
24586;BMP280;12743;52.262;6.172;2022-08-03T08:58:11;101187.84;;;25.28
24586;BMP280;12743;52.262;6.172;2022-08-03T09:00:37;101161.84;;;25.06
24586;BMP280;12743;52.262;6.172;2022-08-03T09:03:05;101198.59;;;25.44
24586;BMP280;12743;52.262;6.172;2022-08-03T09:05:31;101204.06;;;25.73
24586;BMP280;12743;52.262;6.172;2022-08-03T09:07:57;101191.19;;;25.81
24586;BMP280;12743;52.262;6.172;2022-08-03T09:10:22;101164.66;;;25.51
24586;BMP280;12743;52.262;6.172;2022-08-03T09:12:50;101167.16;;;25.74
24586;BMP280;12743;52.262;6.172;2022-08-03T09:17:41;101173.28;;;25.74
24586;BMP280;12743;52.262;6.172;2022-08-03T09:20:06;101207.63;;;26.27
24586;BMP280;12743;52.262;6.172;2022-08-03T09:22:33;101208.34;;;26.56
24586;BMP280;12743;52.262;6.172;2022-08-03T09:25:01;101177.34;;;26.64
24586;BMP280;12743;52.262;6.172;2022-08-03T09:27:28;101201.31;;;26.62
24586;BMP280;12743;52.262;6.172;2022-08-03T09:29:53;101142.56;;;25.88
24586;BMP280;12743;52.262;6.172;2022-08-03T09:32:23;101187.16;;;26.58
24586;BMP280;12743;52.262;6.172;2022-08-03T09:34:50;101172.16;;;26.70
24586;BMP280;12743;52.262;6.172;2022-08-03T09:37:19;101192.13;;;26.85
24586;BMP280;12743;52.262;6.172;2022-08-03T09:39:45;101174.22;;;26.66
24586;BMP280;12743;52.262;6.172;2022-08-03T09:44:38;101176.28;;;26.87
24586;BMP280;12743;52.262;6.172;2022-08-03T09:47:06;101192.09;;;26.60
24586;BMP280;12743;52.262;6.172;2022-08-03T09:49:32;101194.19;;;27.06
24586;BMP280;12743;52.262;6.172;2022-08-03T09:52:11;101154.38;;;26.85
24586;BMP280;12743;52.262;6.172;2022-08-03T09:54:37;101197.09;;;27.24
24586;BMP280;12743;52.262;6.172;2022-08-03T09:57:03;101186.41;;;27.21
24586;BMP280;12743;52.262;6.172;2022-08-03T09:59:30;101157.81;;;27.23
24586;BMP280;12743;52.262;6.172;2022-08-03T10:01:56;101196.38;;;27.45
24586;BMP280;12743;52.262;6.172;2022-08-03T10:04:23;101185.38;;;27.65
24586;BMP280;12743;52.262;6.172;2022-08-03T10:07:21;101195.81;;;27.97
24586;BMP280;12743;52.262;6.172;2022-08-03T10:09:56;101195.03;;;28.18
24586;BMP280;12743;52.262;6.172;2022-08-03T10:12:25;101197.41;;;27.73
24586;BMP280;12743;52.262;6.172;2022-08-03T10:14:52;101184.13;;;27.66
24586;BMP280;12743;52.262;6.172;2022-08-03T10:17:18;101184.78;;;27.70
24586;BMP280;12743;52.262;6.172;2022-08-03T10:19:45;101193.81;;;28.10
24586;BMP280;12743;52.262;6.172;2022-08-03T10:22:37;101187.28;;;28.20
24586;BMP280;12743;52.262;6.172;2022-08-03T10:25:10;101191.91;;;27.98
24586;BMP280;12743;52.262;6.172;2022-08-03T10:27:38;101195.59;;;28.34
24586;BMP280;12743;52.262;6.172;2022-08-03T10:30:09;101185.38;;;27.86
24586;BMP280;12743;52.262;6.172;2022-08-03T10:32:43;101148.38;;;27.96
24586;BMP280;12743;52.262;6.172;2022-08-03T10:35:12;101164.03;;;28.62
24586;BMP280;12743;52.262;6.172;2022-08-03T10:37:59;101184.00;;;28.56
24586;BMP280;12743;52.262;6.172;2022-08-03T10:40:30;101135.97;;;28.29
24586;BMP280;12743;52.262;6.172;2022-08-03T10:42:58;101178.38;;;28.81
24586;BMP280;12743;52.262;6.172;2022-08-03T10:45:29;101179.63;;;29.07
24586;BMP280;12743;52.262;6.172;2022-08-03T10:47:57;101176.75;;;28.83
24586;BMP280;12743;52.262;6.172;2022-08-03T10:50:24;101155.28;;;29.07
24586;BMP280;12743;52.262;6.172;2022-08-03T10:58:13;101150.91;;;28.82
24586;BMP280;12743;52.262;6.172;2022-08-03T11:00:48;101149.88;;;29.07
24586;BMP280;12743;52.262;6.172;2022-08-03T11:03:15;101168.06;;;28.88
24586;BMP280;12743;52.262;6.172;2022-08-03T11:05:45;101155.06;;;29.23
24586;BMP280;12743;52.262;6.172;2022-08-03T11:08:24;101157.97;;;30.06
24586;BMP280;12743;52.262;6.172;2022-08-03T11:10:52;101130.81;;;29.10
24586;BMP280;12743;52.262;6.172;2022-08-03T11:13:19;101125.09;;;29.71
24586;BMP280;12743;52.262;6.172;2022-08-03T11:15:48;101123.59;;;30.21
24586;BMP280;12743;52.262;6.172;2022-08-03T11:18:16;101076.72;;;29.97
24586;BMP280;12743;52.262;6.172;2022-08-03T11:20:45;101159.16;;;30.14
24586;BMP280;12743;52.262;6.172;2022-08-03T11:23:11;101128.59;;;30.14
24586;BMP280;12743;52.262;6.172;2022-08-03T11:26:15;101166.22;;;30.21
24586;BMP280;12743;52.262;6.172;2022-08-03T11:28:45;101139.50;;;30.37
24586;BMP280;12743;52.262;6.172;2022-08-03T11:34:09;101116.41;;;30.51
24586;BMP280;12743;52.262;6.172;2022-08-03T11:37:17;101147.63;;;31.31
24586;BMP280;12743;52.262;6.172;2022-08-03T11:39:47;101046.09;;;30.62
24586;BMP280;12743;52.262;6.172;2022-08-03T11:44:49;101034.19;;;30.45
24586;BMP280;12743;52.262;6.172;2022-08-03T11:47:16;101141.72;;;31.47
24586;BMP280;12743;52.262;6.172;2022-08-03T11:49:46;101150.81;;;31.44
24586;BMP280;12743;52.262;6.172;2022-08-03T11:52:22;101025.47;;;30.41
24586;BMP280;12743;52.262;6.172;2022-08-03T11:54:54;100962.69;;;30.57
24586;BMP280;12743;52.262;6.172;2022-08-03T11:57:30;101119.09;;;31.65
24586;BMP280;12743;52.262;6.172;2022-08-03T11:59:57;101133.22;;;31.69
24586;BMP280;12743;52.262;6.172;2022-08-03T12:02:23;101047.44;;;31.19
24586;BMP280;12743;52.262;6.172;2022-08-03T12:04:57;101061.06;;;30.81
24586;BMP280;12743;52.262;6.172;2022-08-03T12:07:27;101160.31;;;31.11
24586;BMP280;12743;52.262;6.172;2022-08-03T12:10:11;101151.03;;;31.17
24586;BMP280;12743;52.262;6.172;2022-08-03T12:12:36;101081.44;;;31.29
24586;BMP280;12743;52.262;6.172;2022-08-03T12:15:05;101073.47;;;31.25
24586;BMP280;12743;52.262;6.172;2022-08-03T12:17:36;101140.53;;;31.63
24586;BMP280;12743;52.262;6.172;2022-08-03T12:20:04;101154.97;;;31.83
24586;BMP280;12743;52.262;6.172;2022-08-03T12:22:36;101132.09;;;31.61
24586;BMP280;12743;52.262;6.172;2022-08-03T12:25:06;101072.06;;;30.54
24586;BMP280;12743;52.262;6.172;2022-08-03T12:27:32;101122.19;;;31.43
24586;BMP280;12743;52.262;6.172;2022-08-03T12:29:59;101121.91;;;31.56
24586;BMP280;12743;52.262;6.172;2022-08-03T12:32:27;101145.94;;;31.92
24586;BMP280;12743;52.262;6.172;2022-08-03T12:34:53;101102.41;;;31.43
24586;BMP280;12743;52.262;6.172;2022-08-03T12:37:20;101139.16;;;32.17
24586;BMP280;12743;52.262;6.172;2022-08-03T12:39:51;101148.50;;;32.65
24586;BMP280;12743;52.262;6.172;2022-08-03T12:42:18;101142.13;;;32.53
24586;BMP280;12743;52.262;6.172;2022-08-03T12:44:44;101146.66;;;32.22
24586;BMP280;12743;52.262;6.172;2022-08-03T12:47:11;101142.41;;;32.35
24586;BMP280;12743;52.262;6.172;2022-08-03T12:49:49;101157.25;;;32.74
24586;BMP280;12743;52.262;6.172;2022-08-03T12:52:16;101144.34;;;32.15
24586;BMP280;12743;52.262;6.172;2022-08-03T12:54:42;101120.44;;;31.89
24586;BMP280;12743;52.262;6.172;2022-08-03T12:57:17;101132.97;;;32.51
24586;BMP280;12743;52.262;6.172;2022-08-03T12:59:44;101145.94;;;32.41
24586;BMP280;12743;52.262;6.172;2022-08-03T13:02:23;101151.53;;;32.18
24586;BMP280;12743;52.262;6.172;2022-08-03T13:04:49;101154.59;;;32.60
24586;BMP280;12743;52.262;6.172;2022-08-03T13:07:16;101157.50;;;32.96
24586;BMP280;12743;52.262;6.172;2022-08-03T13:09:51;101152.06;;;32.96
24586;BMP280;12743;52.262;6.172;2022-08-03T13:12:21;101123.50;;;32.46
24586;BMP280;12743;52.262;6.172;2022-08-03T13:14:49;101146.38;;;33.45
24586;BMP280;12743;52.262;6.172;2022-08-03T13:17:16;101134.63;;;33.08
24586;BMP280;12743;52.262;6.172;2022-08-03T13:19:42;101147.44;;;32.08
24586;BMP280;12743;52.262;6.172;2022-08-03T13:22:12;101151.88;;;32.80
24586;BMP280;12743;52.262;6.172;2022-08-03T13:24:37;101153.16;;;33.04
24586;BMP280;12743;52.262;6.172;2022-08-03T13:27:03;101145.72;;;33.05
24586;BMP280;12743;52.262;6.172;2022-08-03T13:29:30;101134.22;;;32.95
24586;BMP280;12743;52.262;6.172;2022-08-03T13:31:56;101100.63;;;33.55
24586;BMP280;12743;52.262;6.172;2022-08-03T13:34:21;101143.22;;;33.83
24586;BMP280;12743;52.262;6.172;2022-08-03T13:36:46;101102.03;;;32.94
24586;BMP280;12743;52.262;6.172;2022-08-03T13:39:12;101113.34;;;34.00
24586;BMP280;12743;52.262;6.172;2022-08-03T13:41:37;101150.44;;;34.28
24586;BMP280;12743;52.262;6.172;2022-08-03T13:44:03;101125.84;;;34.23
24586;BMP280;12743;52.262;6.172;2022-08-03T13:46:28;101132.75;;;33.45
24586;BMP280;12743;52.262;6.172;2022-08-03T13:48:53;101121.41;;;33.52
24586;BMP280;12743;52.262;6.172;2022-08-03T13:51:19;101124.50;;;34.07
24586;BMP280;12743;52.262;6.172;2022-08-03T13:53:44;101139.97;;;34.16
24586;BMP280;12743;52.262;6.172;2022-08-03T13:56:10;101114.56;;;33.31
24586;BMP280;12743;52.262;6.172;2022-08-03T13:58:35;101119.97;;;32.80
24586;BMP280;12743;52.262;6.172;2022-08-03T14:01:01;101120.09;;;32.91
24586;BMP280;12743;52.262;6.172;2022-08-03T14:03:26;101121.00;;;33.59
24586;BMP280;12743;52.262;6.172;2022-08-03T14:05:51;101098.28;;;34.15
24586;BMP280;12743;52.262;6.172;2022-08-03T14:08:17;101141.19;;;34.15
24586;BMP280;12743;52.262;6.172;2022-08-03T14:10:43;101152.78;;;33.17
24586;BMP280;12743;52.262;6.172;2022-08-03T14:13:10;101158.44;;;33.64
24586;BMP280;12743;52.262;6.172;2022-08-03T14:15:36;101158.50;;;34.06
24586;BMP280;12743;52.262;6.172;2022-08-03T14:18:02;101141.00;;;35.10
24586;BMP280;12743;52.262;6.172;2022-08-03T14:20:28;101155.13;;;34.28
24586;BMP280;12743;52.262;6.172;2022-08-03T14:22:53;101123.63;;;34.21
24586;BMP280;12743;52.262;6.172;2022-08-03T14:25:19;101148.22;;;33.54
24586;BMP280;12743;52.262;6.172;2022-08-03T14:27:45;101124.72;;;33.98